sensor_id;sensor_type;location;lat;lon;timestamp;pressure;altitude;pressure_sealevel;temperature;humidity
15308;BME280;7755;52.208;6.964;2023-05-23T00:01:06;101238.78;;;15.65;100.00
15308;BME280;7755;52.208;6.964;2023-05-23T00:05:11;101224.88;;;15.72;100.00
15308;BME280;7755;52.208;6.964;2023-05-23T00:09:16;101226.81;;;15.76;100.00
15308;BME280;7755;52.208;6.964;2023-05-23T00:13:18;101229.81;;;15.75;100.00
15308;BME280;7755;52.208;6.964;2023-05-23T00:17:22;101231.63;;;15.64;100.00
15308;BME280;7755;52.208;6.964;2023-05-23T00:21:27;101220.09;;;15.62;100.00
15308;BME280;7755;52.208;6.964;2023-05-23T00:25:32;101219.34;;;15.67;100.00
15308;BME280;7755;52.208;6.964;2023-05-23T00:29:36;101215.22;;;15.69;100.00
15308;BME280;7755;52.208;6.964;2023-05-23T00:33:39;101218.31;;;15.78;100.00
15308;BME280;7755;52.208;6.964;2023-05-23T00:37:43;101213.13;;;15.81;100.00
15308;BME280;7755;52.208;6.964;2023-05-23T00:41:48;101224.88;;;15.72;100.00
15308;BME280;7755;52.208;6.964;2023-05-23T00:45:53;101219.28;;;15.62;100.00
15308;BME280;7755;52.208;6.964;2023-05-23T00:49:56;101224.69;;;15.56;100.00
15308;BME280;7755;52.208;6.964;2023-05-23T00:54:03;101228.50;;;15.55;100.00
15308;BME280;7755;52.208;6.964;2023-05-23T00:58:07;101226.41;;;15.63;100.00
15308;BME280;7755;52.208;6.964;2023-05-23T01:02:10;101235.91;;;15.55;100.00
15308;BME280;7755;52.208;6.964;2023-05-23T01:06:15;101238.78;;;15.38;100.00
15308;BME280;7755;52.208;6.964;2023-05-23T01:10:47;101235.47;;;15.36;100.00
15308;BME280;7755;52.208;6.964;2023-05-23T01:14:55;101244.16;;;15.28;100.00
15308;BME280;7755;52.208;6.964;2023-05-23T01:19:13;101235.47;;;15.36;100.00
15308;BME280;7755;52.208;6.964;2023-05-23T01:28:04;101242.09;;;15.40;100.00
15308;BME280;7755;52.208;6.964;2023-05-23T01:32:11;101241.19;;;15.35;100.00
15308;BME280;7755;52.208;6.964;2023-05-23T01:36:14;101242.22;;;15.28;100.00
15308;BME280;7755;52.208;6.964;2023-05-23T01:40:21;101257.34;;;15.31;100.00
15308;BME280;7755;52.208;6.964;2023-05-23T01:44:25;101252.91;;;15.25;100.00
15308;BME280;7755;52.208;6.964;2023-05-23T01:48:30;101269.84;;;15.22;100.00
15308;BME280;7755;52.208;6.964;2023-05-23T01:52:35;101264.75;;;15.09;100.00
15308;BME280;7755;52.208;6.964;2023-05-23T01:56:39;101271.53;;;15.01;100.00
15308;BME280;7755;52.208;6.964;2023-05-23T02:00:46;101281.09;;;14.98;100.00
15308;BME280;7755;52.208;6.964;2023-05-23T02:04:52;101281.47;;;14.85;100.00
15308;BME280;7755;52.208;6.964;2023-05-23T02:08:58;101285.72;;;14.76;100.00
15308;BME280;7755;52.208;6.964;2023-05-23T02:13:00;101296.81;;;14.64;100.00
15308;BME280;7755;52.208;6.964;2023-05-23T02:17:06;101299.13;;;14.56;100.00
15308;BME280;7755;52.208;6.964;2023-05-23T02:21:10;101285.88;;;14.47;100.00
15308;BME280;7755;52.208;6.964;2023-05-23T02:25:14;101296.34;;;14.51;100.00
15308;BME280;7755;52.208;6.964;2023-05-23T02:29:17;101300.88;;;14.45;100.00
15308;BME280;7755;52.208;6.964;2023-05-23T02:33:21;101302.13;;;14.37;100.00
15308;BME280;7755;52.208;6.964;2023-05-23T02:37:25;101298.88;;;14.40;100.00
15308;BME280;7755;52.208;6.964;2023-05-23T02:41:28;101296.72;;;14.42;100.00
15308;BME280;7755;52.208;6.964;2023-05-23T02:45:32;101304.44;;;14.45;100.00
15308;BME280;7755;52.208;6.964;2023-05-23T02:49:36;101307.44;;;14.44;100.00
15308;BME280;7755;52.208;6.964;2023-05-23T02:53:41;101310.09;;;14.39;100.00
15308;BME280;7755;52.208;6.964;2023-05-23T02:57:44;101326.00;;;14.42;100.00
15308;BME280;7755;52.208;6.964;2023-05-23T03:01:47;101324.75;;;14.33;100.00
15308;BME280;7755;52.208;6.964;2023-05-23T03:05:51;101322.38;;;14.36;100.00
15308;BME280;7755;52.208;6.964;2023-05-23T03:09:54;101322.28;;;14.31;100.00
15308;BME280;7755;52.208;6.964;2023-05-23T03:13:57;101316.66;;;14.38;100.00
15308;BME280;7755;52.208;6.964;2023-05-23T03:18:00;101313.75;;;14.28;100.00
15308;BME280;7755;52.208;6.964;2023-05-23T03:22:06;101313.81;;;14.33;100.00
15308;BME280;7755;52.208;6.964;2023-05-23T03:26:09;101314.56;;;14.28;100.00
15308;BME280;7755;52.208;6.964;2023-05-23T03:30:12;101323.69;;;14.34;100.00
15308;BME280;7755;52.208;6.964;2023-05-23T03:34:15;101329.56;;;14.26;100.00
15308;BME280;7755;52.208;6.964;2023-05-23T03:38:20;101332.06;;;14.27;100.00
15308;BME280;7755;52.208;6.964;2023-05-23T03:42:23;101333.66;;;14.23;100.00
15308;BME280;7755;52.208;6.964;2023-05-23T03:46:26;101330.66;;;14.25;100.00
15308;BME280;7755;52.208;6.964;2023-05-23T03:50:29;101341.44;;;14.31;100.00
15308;BME280;7755;52.208;6.964;2023-05-23T03:54:34;101335.63;;;14.28;100.00
15308;BME280;7755;52.208;6.964;2023-05-23T03:58:37;101342.34;;;14.20;100.00
15308;BME280;7755;52.208;6.964;2023-05-23T04:02:46;101333.31;;;14.03;100.00
15308;BME280;7755;52.208;6.964;2023-05-23T04:06:52;101345.66;;;14.05;100.00
15308;BME280;7755;52.208;6.964;2023-05-23T04:10:57;101355.78;;;14.05;100.00
15308;BME280;7755;52.208;6.964;2023-05-23T04:15:02;101369.69;;;14.03;100.00
15308;BME280;7755;52.208;6.964;2023-05-23T04:19:08;101374.91;;;14.05;100.00
15308;BME280;7755;52.208;6.964;2023-05-23T04:23:11;101378.22;;;14.07;100.00
15308;BME280;7755;52.208;6.964;2023-05-23T04:27:17;101388.69;;;14.10;100.00
15308;BME280;7755;52.208;6.964;2023-05-23T04:31:21;101391.88;;;14.07;100.00
15308;BME280;7755;52.208;6.964;2023-05-23T04:35:24;101388.63;;;13.93;100.00
15308;BME280;7755;52.208;6.964;2023-05-23T04:39:27;101398.84;;;13.98;100.00
15308;BME280;7755;52.208;6.964;2023-05-23T04:43:54;101398.31;;;13.84;100.00
15308;BME280;7755;52.208;6.964;2023-05-23T04:48:02;101408.22;;;13.73;100.00
15308;BME280;7755;52.208;6.964;2023-05-23T04:52:16;101409.72;;;13.81;100.00
15308;BME280;7755;52.208;6.964;2023-05-23T04:56:21;101417.75;;;13.71;100.00
15308;BME280;7755;52.208;6.964;2023-05-23T05:00:29;101425.84;;;13.65;100.00
15308;BME280;7755;52.208;6.964;2023-05-23T05:04:34;101424.88;;;13.72;100.00
15308;BME280;7755;52.208;6.964;2023-05-23T05:08:37;101438.44;;;13.66;100.00
15308;BME280;7755;52.208;6.964;2023-05-23T05:12:42;101436.19;;;13.63;100.00
15308;BME280;7755;52.208;6.964;2023-05-23T05:16:46;101448.91;;;13.58;100.00
15308;BME280;7755;52.208;6.964;2023-05-23T05:20:51;101451.22;;;13.49;100.00
15308;BME280;7755;52.208;6.964;2023-05-23T05:24:53;101456.75;;;13.54;100.00
15308;BME280;7755;52.208;6.964;2023-05-23T05:28:58;101452.47;;;13.58;100.00
15308;BME280;7755;52.208;6.964;2023-05-23T05:33:05;101463.06;;;13.55;100.00
15308;BME280;7755;52.208;6.964;2023-05-23T05:37:10;101465.19;;;13.64;100.00
15308;BME280;7755;52.208;6.964;2023-05-23T05:41:16;101464.59;;;13.62;100.00
15308;BME280;7755;52.208;6.964;2023-05-23T05:45:22;101476.94;;;13.65;100.00
15308;BME280;7755;52.208;6.964;2023-05-23T05:49:27;101478.34;;;13.68;100.00
15308;BME280;7755;52.208;6.964;2023-05-23T05:53:30;101478.00;;;13.64;100.00
15308;BME280;7755;52.208;6.964;2023-05-23T05:57:34;101485.81;;;13.72;100.00
15308;BME280;7755;52.208;6.964;2023-05-23T06:01:39;101498.91;;;13.70;100.00
15308;BME280;7755;52.208;6.964;2023-05-23T06:05:44;101505.19;;;13.71;100.00
15308;BME280;7755;52.208;6.964;2023-05-23T06:09:47;101502.72;;;13.57;100.00
15308;BME280;7755;52.208;6.964;2023-05-23T06:13:50;101518.69;;;13.49;100.00
15308;BME280;7755;52.208;6.964;2023-05-23T06:17:53;101525.56;;;13.51;100.00
15308;BME280;7755;52.208;6.964;2023-05-23T06:21:59;101524.47;;;13.52;100.00
15308;BME280;7755;52.208;6.964;2023-05-23T06:26:01;101523.66;;;13.52;100.00
15308;BME280;7755;52.208;6.964;2023-05-23T06:30:09;101530.78;;;13.53;100.00
15308;BME280;7755;52.208;6.964;2023-05-23T06:34:12;101539.56;;;13.55;100.00
15308;BME280;7755;52.208;6.964;2023-05-23T06:38:17;101542.91;;;13.57;100.00
15308;BME280;7755;52.208;6.964;2023-05-23T06:42:19;101543.97;;;13.44;100.00
15308;BME280;7755;52.208;6.964;2023-05-23T06:46:37;101558.09;;;13.41;100.00
15308;BME280;7755;52.208;6.964;2023-05-23T06:50:41;101555.97;;;13.31;100.00
15308;BME280;7755;52.208;6.964;2023-05-23T06:54:46;101557.03;;;13.30;100.00
15308;BME280;7755;52.208;6.964;2023-05-23T06:58:50;101569.41;;;13.21;100.00
15308;BME280;7755;52.208;6.964;2023-05-23T07:02:56;101576.09;;;13.07;100.00
15308;BME280;7755;52.208;6.964;2023-05-23T07:07:22;101580.72;;;13.06;100.00
15308;BME280;7755;52.208;6.964;2023-05-23T07:11:26;101587.13;;;13.00;100.00
15308;BME280;7755;52.208;6.964;2023-05-23T07:20:08;101599.47;;;12.91;100.00
15308;BME280;7755;52.208;6.964;2023-05-23T07:24:42;101594.78;;;12.80;100.00
15308;BME280;7755;52.208;6.964;2023-05-23T07:28:48;101607.94;;;12.71;100.00
15308;BME280;7755;52.208;6.964;2023-05-23T07:32:53;101606.97;;;12.66;100.00
15308;BME280;7755;52.208;6.964;2023-05-23T07:36:56;101617.97;;;12.59;100.00
15308;BME280;7755;52.208;6.964;2023-05-23T07:41:04;101623.53;;;12.52;100.00
15308;BME280;7755;52.208;6.964;2023-05-23T07:45:15;101623.53;;;12.52;100.00
15308;BME280;7755;52.208;6.964;2023-05-23T07:49:18;101632.78;;;12.51;100.00
15308;BME280;7755;52.208;6.964;2023-05-23T07:53:22;101637.25;;;12.46;100.00
15308;BME280;7755;52.208;6.964;2023-05-23T07:57:26;101641.63;;;12.35;100.00
15308;BME280;7755;52.208;6.964;2023-05-23T08:01:30;101641.22;;;12.32;100.00
15308;BME280;7755;52.208;6.964;2023-05-23T08:05:38;101641.84;;;12.34;100.00
15308;BME280;7755;52.208;6.964;2023-05-23T08:09:41;101652.00;;;12.26;100.00
15308;BME280;7755;52.208;6.964;2023-05-23T08:13:48;101661.53;;;12.36;100.00
15308;BME280;7755;52.208;6.964;2023-05-23T08:18:08;101662.50;;;12.41;100.00
15308;BME280;7755;52.208;6.964;2023-05-23T08:22:12;101657.66;;;12.43;100.00
15308;BME280;7755;52.208;6.964;2023-05-23T08:26:15;101673.72;;;12.81;100.00
15308;BME280;7755;52.208;6.964;2023-05-23T08:30:20;101669.56;;;13.21;100.00
15308;BME280;7755;52.208;6.964;2023-05-23T08:34:25;101673.09;;;13.51;100.00
15308;BME280;7755;52.208;6.964;2023-05-23T08:38:28;101672.16;;;13.57;100.00
15308;BME280;7755;52.208;6.964;2023-05-23T08:42:40;101677.75;;;13.62;99.76
15308;BME280;7755;52.208;6.964;2023-05-23T08:46:46;101680.25;;;13.76;99.10
15308;BME280;7755;52.208;6.964;2023-05-23T08:51:16;101679.00;;;14.07;98.39
15308;BME280;7755;52.208;6.964;2023-05-23T08:55:23;101692.09;;;14.05;94.41
15308;BME280;7755;52.208;6.964;2023-05-23T08:59:28;101697.69;;;14.10;92.38
15308;BME280;7755;52.208;6.964;2023-05-23T09:03:32;101693.38;;;14.14;89.62
15308;BME280;7755;52.208;6.964;2023-05-23T09:07:49;101707.19;;;14.07;90.34
15308;BME280;7755;52.208;6.964;2023-05-23T09:11:54;101704.56;;;14.12;88.15
15308;BME280;7755;52.208;6.964;2023-05-23T09:16:01;101714.31;;;14.08;86.47
15308;BME280;7755;52.208;6.964;2023-05-23T09:20:13;101710.38;;;14.28;87.19
15308;BME280;7755;52.208;6.964;2023-05-23T09:24:32;101718.25;;;14.24;85.85
15308;BME280;7755;52.208;6.964;2023-05-23T09:28:37;101719.66;;;14.27;87.97
15308;BME280;7755;52.208;6.964;2023-05-23T09:32:41;101715.38;;;14.31;89.15
15308;BME280;7755;52.208;6.964;2023-05-23T09:36:45;101726.94;;;14.09;89.84
15308;BME280;7755;52.208;6.964;2023-05-23T09:40:53;101736.31;;;14.02;86.21
15308;BME280;7755;52.208;6.964;2023-05-23T09:44:58;101743.34;;;13.86;84.50
15308;BME280;7755;52.208;6.964;2023-05-23T09:49:14;101745.50;;;13.96;85.10
15308;BME280;7755;52.208;6.964;2023-05-23T09:53:20;101748.31;;;14.01;83.59
15308;BME280;7755;52.208;6.964;2023-05-23T09:57:25;101750.69;;;14.20;83.78
15308;BME280;7755;52.208;6.964;2023-05-23T10:01:30;101742.47;;;14.32;80.19
15308;BME280;7755;52.208;6.964;2023-05-23T10:05:37;101753.66;;;14.54;79.78
15308;BME280;7755;52.208;6.964;2023-05-23T10:09:41;101752.91;;;14.70;74.54
15308;BME280;7755;52.208;6.964;2023-05-23T10:13:53;101760.38;;;14.75;72.52
15308;BME280;7755;52.208;6.964;2023-05-23T10:18:08;101749.78;;;14.79;72.75
15308;BME280;7755;52.208;6.964;2023-05-23T10:22:13;101753.41;;;14.96;72.60
15308;BME280;7755;52.208;6.964;2023-05-23T10:26:17;101753.69;;;15.56;70.83
15308;BME280;7755;52.208;6.964;2023-05-23T10:30:22;101747.34;;;16.01;69.59
15308;BME280;7755;52.208;6.964;2023-05-23T10:34:30;101759.19;;;16.46;64.05
15308;BME280;7755;52.208;6.964;2023-05-23T10:38:39;101750.78;;;16.52;59.49
15308;BME280;7755;52.208;6.964;2023-05-23T10:42:50;101738.16;;;16.51;60.34
15308;BME280;7755;52.208;6.964;2023-05-23T10:46:57;101751.56;;;16.91;59.34
15308;BME280;7755;52.208;6.964;2023-05-23T10:51:04;101736.94;;;17.08;59.08
15308;BME280;7755;52.208;6.964;2023-05-23T10:55:15;101756.38;;;17.01;58.30
15308;BME280;7755;52.208;6.964;2023-05-23T10:59:21;101744.34;;;17.07;56.63
15308;BME280;7755;52.208;6.964;2023-05-23T11:03:33;101747.34;;;17.06;55.27
15308;BME280;7755;52.208;6.964;2023-05-23T11:07:39;101754.75;;;17.05;56.77
15308;BME280;7755;52.208;6.964;2023-05-23T11:11:59;101747.16;;;16.90;57.60
15308;BME280;7755;52.208;6.964;2023-05-23T11:16:23;101752.16;;;16.94;56.48
15308;BME280;7755;52.208;6.964;2023-05-23T11:20:29;101752.38;;;16.87;57.36
15308;BME280;7755;52.208;6.964;2023-05-23T11:24:49;101759.91;;;16.75;57.61
15308;BME280;7755;52.208;6.964;2023-05-23T11:28:58;101760.31;;;16.67;57.75
15308;BME280;7755;52.208;6.964;2023-05-23T11:33:05;101769.63;;;16.65;57.17
15308;BME280;7755;52.208;6.964;2023-05-23T11:37:11;101771.78;;;16.80;56.60
15308;BME280;7755;52.208;6.964;2023-05-23T11:41:14;101778.03;;;16.98;54.45
15308;BME280;7755;52.208;6.964;2023-05-23T11:45:18;101765.97;;;17.26;56.36
15308;BME280;7755;52.208;6.964;2023-05-23T11:49:21;101776.38;;;17.51;53.72
15308;BME280;7755;52.208;6.964;2023-05-23T11:53:31;101771.72;;;17.78;53.04
15308;BME280;7755;52.208;6.964;2023-05-23T11:57:36;101770.72;;;17.89;52.34
15308;BME280;7755;52.208;6.964;2023-05-23T12:01:40;101773.06;;;17.76;52.28
15308;BME280;7755;52.208;6.964;2023-05-23T12:05:43;101778.16;;;17.67;51.96
15308;BME280;7755;52.208;6.964;2023-05-23T12:09:48;101776.69;;;17.54;51.72
15308;BME280;7755;52.208;6.964;2023-05-23T12:13:51;101779.19;;;17.83;51.83
15308;BME280;7755;52.208;6.964;2023-05-23T12:17:54;101766.91;;;18.00;50.57
15308;BME280;7755;52.208;6.964;2023-05-23T12:22:04;101772.88;;;17.87;51.53
15308;BME280;7755;52.208;6.964;2023-05-23T12:26:10;101773.34;;;18.11;50.15
15308;BME280;7755;52.208;6.964;2023-05-23T12:30:15;101765.75;;;18.34;50.25
15308;BME280;7755;52.208;6.964;2023-05-23T12:34:19;101769.44;;;18.02;48.44
15308;BME280;7755;52.208;6.964;2023-05-23T12:38:27;101761.09;;;17.92;50.29
15308;BME280;7755;52.208;6.964;2023-05-23T12:42:43;101775.22;;;18.06;49.06
15308;BME280;7755;52.208;6.964;2023-05-23T12:46:49;101773.19;;;17.91;50.12
15308;BME280;7755;52.208;6.964;2023-05-23T12:50:52;101777.53;;;17.87;50.76
15308;BME280;7755;52.208;6.964;2023-05-23T12:54:55;101773.63;;;18.10;50.48
15308;BME280;7755;52.208;6.964;2023-05-23T12:59:03;101779.56;;;18.39;48.07
15308;BME280;7755;52.208;6.964;2023-05-23T13:03:07;101781.56;;;18.53;47.76
15308;BME280;7755;52.208;6.964;2023-05-23T13:07:10;101786.31;;;18.21;48.30
15308;BME280;7755;52.208;6.964;2023-05-23T13:11:13;101780.56;;;17.85;48.97
15308;BME280;7755;52.208;6.964;2023-05-23T13:15:18;101791.69;;;17.68;50.92
15308;BME280;7755;52.208;6.964;2023-05-23T13:19:32;101790.81;;;17.36;49.74
15308;BME280;7755;52.208;6.964;2023-05-23T13:24:02;101788.75;;;17.21;48.83
15308;BME280;7755;52.208;6.964;2023-05-23T13:28:21;101788.88;;;17.09;49.17
15308;BME280;7755;52.208;6.964;2023-05-23T13:32:27;101787.91;;;16.99;49.87
15308;BME280;7755;52.208;6.964;2023-05-23T13:36:30;101799.97;;;17.46;49.51
15308;BME280;7755;52.208;6.964;2023-05-23T13:40:34;101790.88;;;17.68;48.51
15308;BME280;7755;52.208;6.964;2023-05-23T13:44:38;101802.53;;;17.80;49.59
15308;BME280;7755;52.208;6.964;2023-05-23T13:48:43;101805.34;;;17.58;48.49
15308;BME280;7755;52.208;6.964;2023-05-23T13:52:49;101806.38;;;17.25;47.96
15308;BME280;7755;52.208;6.964;2023-05-23T13:56:52;101794.97;;;17.38;47.78
15308;BME280;7755;52.208;6.964;2023-05-23T14:00:55;101789.66;;;17.86;47.02
15308;BME280;7755;52.208;6.964;2023-05-23T14:05:02;101795.09;;;17.76;47.98
15308;BME280;7755;52.208;6.964;2023-05-23T14:09:06;101804.88;;;17.98;47.23
15308;BME280;7755;52.208;6.964;2023-05-23T14:13:15;101808.25;;;17.73;48.17
15308;BME280;7755;52.208;6.964;2023-05-23T14:17:19;101810.97;;;17.46;48.36
15308;BME280;7755;52.208;6.964;2023-05-23T14:21:26;101805.28;;;17.53;48.90
15308;BME280;7755;52.208;6.964;2023-05-23T14:25:30;101802.09;;;17.66;49.49
15308;BME280;7755;52.208;6.964;2023-05-23T14:29:33;101815.13;;;17.71;49.46
15308;BME280;7755;52.208;6.964;2023-05-23T14:33:44;101818.41;;;17.46;49.22
15308;BME280;7755;52.208;6.964;2023-05-23T14:37:52;101821.69;;;17.43;49.59
15308;BME280;7755;52.208;6.964;2023-05-23T14:41:55;101821.25;;;17.29;49.14
15308;BME280;7755;52.208;6.964;2023-05-23T14:45:59;101810.69;;;17.43;48.34
15308;BME280;7755;52.208;6.964;2023-05-23T14:50:03;101810.94;;;17.68;47.02
15308;BME280;7755;52.208;6.964;2023-05-23T14:54:12;101826.22;;;17.59;46.44
15308;BME280;7755;52.208;6.964;2023-05-23T14:58:17;101823.16;;;17.02;48.12
15308;BME280;7755;52.208;6.964;2023-05-23T15:02:21;101824.88;;;16.69;49.39
15308;BME280;7755;52.208;6.964;2023-05-23T15:06:29;101833.09;;;16.47;50.34
15308;BME280;7755;52.208;6.964;2023-05-23T15:10:38;101823.78;;;16.48;51.29
15308;BME280;7755;52.208;6.964;2023-05-23T15:14:45;101811.66;;;16.66;49.45
15308;BME280;7755;52.208;6.964;2023-05-23T15:18:49;101815.94;;;16.74;48.89
15308;BME280;7755;52.208;6.964;2023-05-23T15:22:53;101828.97;;;16.67;48.24
15308;BME280;7755;52.208;6.964;2023-05-23T15:26:58;101820.28;;;16.53;49.03
15308;BME280;7755;52.208;6.964;2023-05-23T15:31:20;101823.38;;;16.78;49.61
15308;BME280;7755;52.208;6.964;2023-05-23T15:35:24;101826.56;;;16.92;48.33
15308;BME280;7755;52.208;6.964;2023-05-23T15:39:29;101818.78;;;17.06;48.00
15308;BME280;7755;52.208;6.964;2023-05-23T15:43:35;101821.53;;;17.06;47.46
15308;BME280;7755;52.208;6.964;2023-05-23T15:47:38;101811.34;;;17.28;48.24
15308;BME280;7755;52.208;6.964;2023-05-23T15:51:41;101830.19;;;17.41;47.73
15308;BME280;7755;52.208;6.964;2023-05-23T15:55:47;101826.16;;;17.27;46.20
15308;BME280;7755;52.208;6.964;2023-05-23T15:59:53;101832.34;;;17.39;47.00
15308;BME280;7755;52.208;6.964;2023-05-23T16:03:56;101833.19;;;17.40;46.17
15308;BME280;7755;52.208;6.964;2023-05-23T16:07:59;101826.97;;;17.50;45.83
15308;BME280;7755;52.208;6.964;2023-05-23T16:12:02;101834.53;;;17.64;45.25
15308;BME280;7755;52.208;6.964;2023-05-23T16:16:08;101824.50;;;17.26;45.55
15308;BME280;7755;52.208;6.964;2023-05-23T16:20:11;101831.19;;;17.08;46.11
15308;BME280;7755;52.208;6.964;2023-05-23T16:24:16;101824.91;;;17.35;46.99
15308;BME280;7755;52.208;6.964;2023-05-23T16:28:20;101832.41;;;17.44;45.61
15308;BME280;7755;52.208;6.964;2023-05-23T16:32:24;101830.41;;;17.13;44.80
15308;BME280;7755;52.208;6.964;2023-05-23T16:36:28;101829.78;;;17.06;45.53
15308;BME280;7755;52.208;6.964;2023-05-23T16:40:31;101824.81;;;17.03;45.90
15308;BME280;7755;52.208;6.964;2023-05-23T16:44:35;101831.38;;;17.02;47.30
15308;BME280;7755;52.208;6.964;2023-05-23T16:48:42;101826.91;;;16.57;47.80
15308;BME280;7755;52.208;6.964;2023-05-23T16:52:47;101832.34;;;16.35;48.31
15308;BME280;7755;52.208;6.964;2023-05-23T16:56:54;101826.16;;;16.06;45.65
15308;BME280;7755;52.208;6.964;2023-05-23T17:00:58;101819.31;;;15.75;46.25
15308;BME280;7755;52.208;6.964;2023-05-23T17:05:04;101823.28;;;15.67;46.27
15308;BME280;7755;52.208;6.964;2023-05-23T17:09:08;101828.19;;;15.82;47.57
15308;BME280;7755;52.208;6.964;2023-05-23T17:13:11;101820.06;;;16.04;46.88
15308;BME280;7755;52.208;6.964;2023-05-23T17:17:14;101843.16;;;15.91;46.94
15308;BME280;7755;52.208;6.964;2023-05-23T17:21:20;101829.84;;;15.66;47.20
15308;BME280;7755;52.208;6.964;2023-05-23T17:25:23;101829.97;;;15.60;47.23
15308;BME280;7755;52.208;6.964;2023-05-23T17:29:26;101840.69;;;15.61;48.04
15308;BME280;7755;52.208;6.964;2023-05-23T17:33:30;101839.34;;;15.47;48.25
15308;BME280;7755;52.208;6.964;2023-05-23T17:37:35;101850.59;;;15.34;48.40
15308;BME280;7755;52.208;6.964;2023-05-23T17:41:39;101857.28;;;15.26;48.92
15308;BME280;7755;52.208;6.964;2023-05-23T17:45:43;101857.69;;;15.18;48.65
15308;BME280;7755;52.208;6.964;2023-05-23T17:49:46;101848.91;;;15.04;47.42
15308;BME280;7755;52.208;6.964;2023-05-23T17:53:54;101854.53;;;14.97;47.57
15308;BME280;7755;52.208;6.964;2023-05-23T17:57:57;101862.63;;;14.81;48.23
15308;BME280;7755;52.208;6.964;2023-05-23T18:02:02;101859.31;;;14.67;49.01
15308;BME280;7755;52.208;6.964;2023-05-23T18:06:07;101870.38;;;14.60;50.07
15308;BME280;7755;52.208;6.964;2023-05-23T18:10:12;101870.75;;;14.52;50.77
15308;BME280;7755;52.208;6.964;2023-05-23T18:14:16;101882.84;;;14.44;51.12
15308;BME280;7755;52.208;6.964;2023-05-23T18:18:19;101888.06;;;14.34;51.65
15308;BME280;7755;52.208;6.964;2023-05-23T18:22:24;101889.94;;;14.22;50.52
15308;BME280;7755;52.208;6.964;2023-05-23T18:26:29;101885.41;;;14.04;50.39
15308;BME280;7755;52.208;6.964;2023-05-23T18:30:33;101891.34;;;14.01;50.98
15308;BME280;7755;52.208;6.964;2023-05-23T18:34:38;101891.13;;;14.03;51.63
15308;BME280;7755;52.208;6.964;2023-05-23T18:38:41;101885.88;;;14.01;52.29
15308;BME280;7755;52.208;6.964;2023-05-23T18:42:46;101890.25;;;13.90;52.49
15308;BME280;7755;52.208;6.964;2023-05-23T18:47:00;101888.19;;;13.74;52.99
15308;BME280;7755;52.208;6.964;2023-05-23T18:51:16;101891.94;;;13.61;54.00
15308;BME280;7755;52.208;6.964;2023-05-23T18:55:35;101905.91;;;13.53;53.51
15308;BME280;7755;52.208;6.964;2023-05-23T18:59:43;101901.41;;;13.29;54.09
15308;BME280;7755;52.208;6.964;2023-05-23T19:03:49;101908.53;;;13.30;54.15
15308;BME280;7755;52.208;6.964;2023-05-23T19:07:53;101911.13;;;13.25;54.70
15308;BME280;7755;52.208;6.964;2023-05-23T19:12:01;101921.41;;;13.04;54.09
15308;BME280;7755;52.208;6.964;2023-05-23T19:16:07;101925.44;;;13.02;54.21
15308;BME280;7755;52.208;6.964;2023-05-23T19:20:12;101932.41;;;12.98;54.86
15308;BME280;7755;52.208;6.964;2023-05-23T19:24:18;101948.78;;;12.98;54.87
15308;BME280;7755;52.208;6.964;2023-05-23T19:28:22;101947.78;;;12.92;55.66
15308;BME280;7755;52.208;6.964;2023-05-23T19:32:44;101955.50;;;12.77;55.80
15308;BME280;7755;52.208;6.964;2023-05-23T19:37:06;101960.06;;;12.58;56.58
15308;BME280;7755;52.208;6.964;2023-05-23T19:41:28;101963.75;;;12.45;57.22
15308;BME280;7755;52.208;6.964;2023-05-23T19:45:49;101967.69;;;12.49;57.80
15308;BME280;7755;52.208;6.964;2023-05-23T19:49:54;101969.88;;;12.41;57.98
15308;BME280;7755;52.208;6.964;2023-05-23T19:54:04;101970.13;;;12.33;58.72
15308;BME280;7755;52.208;6.964;2023-05-23T19:58:10;101977.75;;;12.24;59.37
15308;BME280;7755;52.208;6.964;2023-05-23T20:02:14;101975.53;;;12.14;59.94
15308;BME280;7755;52.208;6.964;2023-05-23T20:06:20;101985.63;;;12.07;60.13
15308;BME280;7755;52.208;6.964;2023-05-23T20:10:24;101981.88;;;12.01;60.52
15308;BME280;7755;52.208;6.964;2023-05-23T20:14:30;101988.41;;;12.00;60.60
15308;BME280;7755;52.208;6.964;2023-05-23T20:18:35;101999.59;;;11.86;61.27
15308;BME280;7755;52.208;6.964;2023-05-23T20:22:54;102008.63;;;11.73;61.72
15308;BME280;7755;52.208;6.964;2023-05-23T20:27:03;102007.19;;;11.64;62.34
15308;BME280;7755;52.208;6.964;2023-05-23T20:31:12;102012.25;;;11.60;63.46
15308;BME280;7755;52.208;6.964;2023-05-23T20:35:33;102009.94;;;11.51;64.36
15308;BME280;7755;52.208;6.964;2023-05-23T20:39:55;102016.69;;;11.48;64.74
15308;BME280;7755;52.208;6.964;2023-05-23T20:44:11;102011.66;;;11.45;65.32
15308;BME280;7755;52.208;6.964;2023-05-23T20:48:17;102016.47;;;11.43;65.74
15308;BME280;7755;52.208;6.964;2023-05-23T20:52:28;102014.41;;;11.45;66.42
15308;BME280;7755;52.208;6.964;2023-05-23T20:56:40;102011.47;;;11.40;67.09
15308;BME280;7755;52.208;6.964;2023-05-23T21:00:55;102008.75;;;11.33;67.83
15308;BME280;7755;52.208;6.964;2023-05-23T21:05:06;102010.22;;;11.36;68.51
15308;BME280;7755;52.208;6.964;2023-05-23T21:09:15;102017.75;;;11.34;69.11
15308;BME280;7755;52.208;6.964;2023-05-23T21:13:25;102006.88;;;11.34;69.43
15308;BME280;7755;52.208;6.964;2023-05-23T21:17:30;102007.28;;;11.31;69.91
15308;BME280;7755;52.208;6.964;2023-05-23T21:21:35;101998.50;;;11.29;70.34
15308;BME280;7755;52.208;6.964;2023-05-23T21:25:44;102015.06;;;11.27;70.90
15308;BME280;7755;52.208;6.964;2023-05-23T21:30:04;102011.72;;;11.18;71.74
15308;BME280;7755;52.208;6.964;2023-05-23T21:34:10;102005.25;;;11.13;72.48
15308;BME280;7755;52.208;6.964;2023-05-23T21:38:25;102006.72;;;11.02;73.18
15308;BME280;7755;52.208;6.964;2023-05-23T21:42:30;102005.66;;;10.97;74.02
15308;BME280;7755;52.208;6.964;2023-05-23T21:46:35;102009.66;;;10.94;74.48